createdAt,value
2022-11-22T00:02:49.634Z,100.00
2022-11-22T00:06:51.345Z,100.00
2022-11-22T00:10:52.621Z,100.00
2022-11-22T00:14:57.005Z,100.00
2022-11-22T00:18:58.476Z,100.00
2022-11-22T00:22:59.908Z,100.00
2022-11-22T00:27:01.207Z,100.00
2022-11-22T00:31:02.516Z,100.00
2022-11-22T00:35:04.056Z,100.00
2022-11-22T00:39:05.579Z,100.00
2022-11-22T00:43:06.816Z,100.00
2022-11-22T00:47:08.136Z,100.00
2022-11-22T00:51:09.424Z,100.00
2022-11-22T00:55:10.922Z,100.00
2022-11-22T00:59:12.185Z,100.00
2022-11-22T01:03:13.802Z,100.00
2022-11-22T01:07:15.309Z,99.84
2022-11-22T01:11:17.810Z,99.85
2022-11-22T01:15:19.157Z,99.84
2022-11-22T01:19:20.718Z,99.22
2022-11-22T01:23:22.131Z,99.55
2022-11-22T01:27:24.252Z,99.20
2022-11-22T01:31:25.545Z,98.98
2022-11-22T01:35:26.880Z,98.25
2022-11-22T01:39:28.654Z,97.88
2022-11-22T01:43:30.563Z,97.36
2022-11-22T01:47:31.876Z,96.46
2022-11-22T01:51:38.427Z,96.47
2022-11-22T01:55:40.293Z,95.76
2022-11-22T01:59:44.554Z,95.42
2022-11-22T02:03:48.768Z,95.31
2022-11-22T02:07:56.095Z,94.93
2022-11-22T02:11:59.770Z,93.93
2022-11-22T02:16:01.658Z,93.54
2022-11-22T02:20:03.058Z,93.45
2022-11-22T02:24:18.974Z,93.58
2022-11-22T02:28:20.316Z,93.51
2022-11-22T02:32:21.874Z,93.79
2022-11-22T02:36:23.275Z,94.27
2022-11-22T02:40:26.486Z,94.55
2022-11-22T02:44:27.827Z,94.72
2022-11-22T02:48:29.161Z,94.79
2022-11-22T02:52:30.470Z,95.21
2022-11-22T02:56:31.799Z,95.43
2022-11-22T03:00:33.986Z,95.63
2022-11-22T03:04:35.360Z,95.96
2022-11-22T03:08:36.709Z,96.53
2022-11-22T03:12:38.205Z,96.34
2022-11-22T03:16:39.490Z,95.90
2022-11-22T03:20:40.837Z,95.53
2022-11-22T03:24:42.155Z,95.50
2022-11-22T03:28:43.476Z,95.22
2022-11-22T03:32:45.161Z,94.91
2022-11-22T03:36:46.828Z,95.35
2022-11-22T03:40:48.347Z,95.32
2022-11-22T03:44:49.851Z,95.37
2022-11-22T03:48:51.137Z,95.07
2022-11-22T03:52:52.411Z,95.82
2022-11-22T03:56:53.681Z,96.42
2022-11-22T04:00:56.240Z,96.27
2022-11-22T04:04:59.504Z,95.51
2022-11-22T04:09:00.850Z,95.57
2022-11-22T04:13:02.264Z,94.83
2022-11-22T04:17:03.878Z,94.91
2022-11-22T04:21:23.662Z,94.76
2022-11-22T04:25:29.625Z,94.82
2022-11-22T04:29:31.245Z,94.76
2022-11-22T04:33:33.638Z,95.38
2022-11-22T04:37:36.202Z,95.62
2022-11-22T04:41:39.663Z,95.43
2022-11-22T04:45:42.568Z,96.13
2022-11-22T04:49:44.726Z,95.51
2022-11-22T04:53:47.459Z,95.46
2022-11-22T04:57:48.828Z,94.79
2022-11-22T05:01:50.215Z,94.67
2022-11-22T05:05:55.635Z,94.86
2022-11-22T05:09:57.181Z,93.38
2022-11-22T05:13:58.802Z,93.58
2022-11-22T05:18:00.079Z,93.45
2022-11-22T05:22:02.142Z,93.18
2022-11-22T05:26:04.114Z,93.08
2022-11-22T05:30:05.928Z,93.37
2022-11-22T05:34:07.209Z,92.86
2022-11-22T05:38:08.535Z,91.91
2022-11-22T05:42:09.951Z,92.36
2022-11-22T05:46:12.684Z,92.22
2022-11-22T05:50:13.956Z,91.64
2022-11-22T05:54:15.255Z,90.76
2022-11-22T05:58:16.588Z,90.02
2022-11-22T06:02:18.633Z,90.05
2022-11-22T06:06:20.173Z,90.08
2022-11-22T06:10:21.807Z,90.16
2022-11-22T06:14:23.057Z,90.67
2022-11-22T06:18:24.352Z,91.32
2022-11-22T06:22:25.591Z,90.77
2022-11-22T06:26:27.323Z,91.37
2022-11-22T06:30:28.924Z,91.69
2022-11-22T06:34:30.262Z,91.80
2022-11-22T06:38:31.548Z,92.21
2022-11-22T06:42:33.012Z,92.49
2022-11-22T06:46:34.890Z,92.89
2022-11-22T06:50:36.396Z,92.85
2022-11-22T06:54:37.994Z,93.41
2022-11-22T06:58:39.512Z,93.51
2022-11-22T07:02:41.181Z,93.79
2022-11-22T07:06:44.713Z,93.72
2022-11-22T07:10:46.226Z,93.73
2022-11-22T07:14:49.124Z,93.77
2022-11-22T07:18:50.978Z,94.16
2022-11-22T07:22:55.050Z,94.13
2022-11-22T07:26:56.472Z,94.60
2022-11-22T07:31:01.849Z,95.07
2022-11-22T07:35:03.307Z,95.44
2022-11-22T07:39:04.699Z,95.10
2022-11-22T07:43:06.217Z,95.14
2022-11-22T07:47:08.145Z,95.67
2022-11-22T07:51:09.469Z,96.00
2022-11-22T07:55:14.288Z,97.09
2022-11-22T07:59:16.019Z,97.16
2022-11-22T08:03:22.697Z,96.68
2022-11-22T08:07:26.896Z,96.62
2022-11-22T08:11:28.998Z,95.87
2022-11-22T08:15:30.273Z,95.96
2022-11-22T08:19:32.024Z,95.45
2022-11-22T08:23:33.691Z,95.65
2022-11-22T08:27:35.270Z,95.30
2022-11-22T08:31:36.820Z,94.39
2022-11-22T08:35:38.140Z,94.98
2022-11-22T08:39:39.453Z,94.58
2022-11-22T08:43:40.914Z,94.19
2022-11-22T08:47:42.209Z,93.88
2022-11-22T08:51:45.274Z,92.54
2022-11-22T08:55:46.748Z,92.19
2022-11-22T08:59:48.115Z,90.28
2022-11-22T09:03:49.721Z,87.61
2022-11-22T09:12:12.328Z,84.26
2022-11-22T09:16:18.860Z,83.99
2022-11-22T09:20:20.199Z,82.30
2022-11-22T09:24:21.622Z,83.51
2022-11-22T09:28:23.117Z,84.52
2022-11-22T09:32:28.100Z,83.22
2022-11-22T09:36:32.004Z,83.27
2022-11-22T09:40:33.714Z,82.97
2022-11-22T09:44:45.428Z,83.84
2022-11-22T09:48:56.236Z,81.92
2022-11-22T09:53:01.710Z,82.10
2022-11-22T09:57:04.987Z,81.06
2022-11-22T10:01:18.221Z,80.79
2022-11-22T10:05:24.294Z,80.86
2022-11-22T10:09:25.996Z,81.72
2022-11-22T10:13:41.102Z,81.48
2022-11-22T10:17:56.385Z,81.97
2022-11-22T10:21:57.766Z,82.42
2022-11-22T10:26:00.215Z,81.95
2022-11-22T10:30:04.908Z,81.63
2022-11-22T10:34:31.488Z,80.70
2022-11-22T10:38:35.808Z,81.84
2022-11-22T10:42:40.453Z,81.71
2022-11-22T10:46:44.571Z,83.02
2022-11-22T10:50:45.800Z,84.53
2022-11-22T10:54:59.203Z,85.39
2022-11-22T10:59:19.080Z,86.02
2022-11-22T11:03:35.886Z,86.79
2022-11-22T11:07:38.206Z,86.46
2022-11-22T11:11:42.009Z,87.28
2022-11-22T11:15:52.818Z,88.54
2022-11-22T11:19:59.038Z,88.46
2022-11-22T11:24:00.389Z,89.30
2022-11-22T11:28:06.988Z,90.16
2022-11-22T11:32:08.315Z,90.04
2022-11-22T11:36:15.804Z,89.61
2022-11-22T11:40:26.476Z,90.14
2022-11-22T11:44:36.630Z,90.16
2022-11-22T11:48:38.207Z,90.41
2022-11-22T11:52:40.843Z,91.38
2022-11-22T11:56:45.619Z,92.18
2022-11-22T12:00:48.414Z,92.87
2022-11-22T12:04:49.691Z,93.14
2022-11-22T12:08:51.039Z,93.26
2022-11-22T12:13:11.240Z,93.43
2022-11-22T12:17:17.225Z,93.48
2022-11-22T12:21:24.531Z,93.78
2022-11-22T12:25:32.473Z,93.39
2022-11-22T12:29:35.028Z,93.71
2022-11-22T12:33:39.906Z,93.01
2022-11-22T12:37:53.148Z,93.34
2022-11-22T12:42:00.593Z,93.75
2022-11-22T12:46:09.743Z,93.61
2022-11-22T12:50:37.475Z,94.51
2022-11-22T12:54:43.442Z,95.16
2022-11-22T12:58:57.004Z,94.93
2022-11-22T13:03:04.197Z,95.08
2022-11-22T13:07:12.157Z,95.44
2022-11-22T13:11:14.712Z,95.66
2022-11-22T13:15:19.159Z,95.36
2022-11-22T13:19:22.112Z,95.04
2022-11-22T13:23:44.651Z,95.06
2022-11-22T13:27:48.443Z,95.19
2022-11-22T13:32:07.042Z,95.63
2022-11-22T13:36:27.098Z,95.72
2022-11-22T13:40:29.998Z,96.48
2022-11-22T13:44:31.445Z,96.65
2022-11-22T13:48:39.663Z,96.67
2022-11-22T13:52:51.839Z,96.62
2022-11-22T13:56:59.635Z,96.68
2022-11-22T14:01:01.040Z,96.42
2022-11-22T14:05:02.635Z,96.82
2022-11-22T14:09:33.292Z,97.08
2022-11-22T14:13:54.503Z,97.29
2022-11-22T14:18:03.592Z,97.29
2022-11-22T14:22:12.151Z,97.18
2022-11-22T14:26:20.799Z,97.41
2022-11-22T14:30:23.331Z,97.41
2022-11-22T14:34:29.151Z,97.96
2022-11-22T14:38:32.783Z,97.71
2022-11-22T14:42:37.149Z,97.78
2022-11-22T14:46:57.611Z,97.98
2022-11-22T14:51:02.033Z,97.98
2022-11-22T14:55:06.043Z,98.61
2022-11-22T14:59:33.827Z,98.37
2022-11-22T15:09:11.958Z,98.62
2022-11-22T15:09:15.370Z,98.68
2022-11-22T15:12:43.772Z,99.07
2022-11-22T16:00:48.699Z,100.00
2022-11-22T16:06:09.567Z,100.00
2022-11-22T16:09:23.709Z,99.77
2022-11-22T16:13:27.710Z,99.83
2022-11-22T16:17:38.392Z,99.69
2022-11-22T16:21:39.683Z,99.57
2022-11-22T16:25:42.820Z,99.37
2022-11-22T16:29:50.310Z,99.71
2022-11-22T16:33:52.270Z,99.82
2022-11-22T16:37:54.312Z,99.89
2022-11-22T16:41:55.629Z,100.00
2022-11-22T16:45:56.994Z,100.00
2022-11-22T16:49:58.278Z,100.00
2022-11-22T16:54:05.170Z,99.89
2022-11-22T16:58:12.692Z,99.75
2022-11-22T17:02:15.470Z,100.00
2022-11-22T17:06:18.947Z,100.00
2022-11-22T17:10:20.427Z,100.00
2022-11-22T17:14:21.894Z,100.00
2022-11-22T17:18:23.511Z,100.00
2022-11-22T17:22:25.200Z,100.00
2022-11-22T17:26:27.089Z,100.00
2022-11-22T17:30:28.473Z,100.00
2022-11-22T17:34:29.964Z,100.00
2022-11-22T17:38:31.807Z,100.00
2022-11-22T17:42:38.150Z,100.00
2022-11-22T17:46:43.933Z,100.00
2022-11-22T17:50:45.303Z,100.00
2022-11-22T17:54:46.719Z,100.00
2022-11-22T17:58:48.623Z,100.00
2022-11-22T18:02:50.178Z,100.00
2022-11-22T18:06:51.585Z,100.00
2022-11-22T18:10:53.856Z,100.00
2022-11-22T18:14:55.235Z,99.77
2022-11-22T18:18:57.909Z,99.86
2022-11-22T18:23:00.011Z,99.68
2022-11-22T18:27:01.303Z,99.85
2022-11-22T18:31:02.887Z,99.94
2022-11-22T18:35:04.370Z,99.85
2022-11-22T18:39:05.682Z,99.53
2022-11-22T18:43:06.976Z,99.63
2022-11-22T18:47:09.171Z,99.29
2022-11-22T18:51:10.621Z,99.60
2022-11-22T18:55:15.742Z,99.25
2022-11-22T18:59:17.152Z,99.28
2022-11-22T19:03:18.455Z,99.58
2022-11-22T19:07:23.074Z,99.88
2022-11-22T19:11:24.695Z,99.92
2022-11-22T19:15:26.679Z,99.90
2022-11-22T19:19:32.039Z,99.99
2022-11-22T19:23:33.995Z,100.00
2022-11-22T19:27:35.836Z,100.00
2022-11-22T19:31:37.293Z,99.91
2022-11-22T19:35:38.647Z,99.97
2022-11-22T19:39:40.225Z,100.00
2022-11-22T19:43:41.915Z,99.56
2022-11-22T19:47:43.151Z,100.00
2022-11-22T19:51:44.467Z,99.93
2022-11-22T19:55:45.792Z,99.91
2022-11-22T19:59:47.067Z,100.00
2022-11-22T20:03:52.447Z,100.00
2022-11-22T20:07:53.880Z,100.00
2022-11-22T20:11:55.158Z,99.97
2022-11-22T20:15:57.724Z,100.00
2022-11-22T20:19:58.963Z,100.00
2022-11-22T20:24:00.952Z,99.76
2022-11-22T20:28:02.197Z,99.61
2022-11-22T20:32:03.791Z,99.67
2022-11-22T20:36:06.122Z,99.44
2022-11-22T20:40:07.875Z,99.48
2022-11-22T20:44:11.317Z,99.24
2022-11-22T20:48:15.345Z,99.32
2022-11-22T20:52:16.655Z,98.66
2022-11-22T20:56:18.803Z,98.69
2022-11-22T21:00:20.154Z,98.64
2022-11-22T21:04:21.704Z,98.43
2022-11-22T21:08:26.083Z,98.76
2022-11-22T21:12:30.676Z,98.61
2022-11-22T21:16:33.042Z,98.67
2022-11-22T21:20:36.979Z,98.46
2022-11-22T21:24:38.628Z,98.40
2022-11-22T21:28:40.599Z,98.05
2022-11-22T21:32:41.950Z,98.07
2022-11-22T21:36:43.234Z,98.46
2022-11-22T21:41:05.615Z,98.44
2022-11-22T21:45:16.083Z,98.56
2022-11-22T21:49:17.363Z,98.76
2022-11-22T21:53:18.948Z,98.36
2022-11-22T21:57:20.362Z,98.79
2022-11-22T22:01:21.903Z,98.47
2022-11-22T22:05:23.291Z,98.64
2022-11-22T22:09:24.574Z,98.75
2022-11-22T22:13:26.092Z,99.10
2022-11-22T22:17:27.743Z,98.94
2022-11-22T22:21:29.036Z,99.30
2022-11-22T22:25:30.857Z,99.15
2022-11-22T22:29:32.569Z,99.11
2022-11-22T22:33:34.792Z,98.96
2022-11-22T22:37:36.082Z,99.01
2022-11-22T22:41:37.762Z,98.61
2022-11-22T22:45:39.046Z,98.29
2022-11-22T22:49:40.315Z,98.52
2022-11-22T22:53:42.358Z,97.92
2022-11-22T22:57:43.624Z,97.86
2022-11-22T23:01:44.895Z,98.15
2022-11-22T23:05:46.507Z,98.33
2022-11-22T23:09:47.777Z,98.20
2022-11-22T23:13:49.087Z,98.04
2022-11-22T23:17:50.464Z,98.06
2022-11-22T23:21:51.969Z,98.44
2022-11-22T23:25:53.275Z,97.99
2022-11-22T23:29:54.627Z,98.43
2022-11-22T23:33:56.183Z,98.52
2022-11-22T23:37:57.532Z,98.86
2022-11-22T23:41:58.756Z,98.92
2022-11-22T23:46:00.172Z,99.11
2022-11-22T23:50:01.627Z,99.36
2022-11-22T23:54:04.586Z,100.00
2022-11-22T23:58:06.052Z,99.42
